sensor_id;sensor_type;location;lat;lon;timestamp;P1;durP1;ratioP1;P2;durP2;ratioP2
70153;SDS011;57519;51.494;-2.626;2022-12-10T00:00:35;18.37;;;11.67;;
70153;SDS011;57519;51.494;-2.626;2022-12-10T00:03:01;20.92;;;13.10;;
70153;SDS011;57519;51.494;-2.626;2022-12-10T00:05:26;23.37;;;12.80;;
70153;SDS011;57519;51.494;-2.626;2022-12-10T00:07:52;18.60;;;12.50;;
70153;SDS011;57519;51.494;-2.626;2022-12-10T00:10:17;22.33;;;13.60;;
70153;SDS011;57519;51.494;-2.626;2022-12-10T00:12:43;20.53;;;12.20;;
70153;SDS011;57519;51.494;-2.626;2022-12-10T00:15:08;26.20;;;14.70;;
70153;SDS011;57519;51.494;-2.626;2022-12-10T00:17:34;19.77;;;13.05;;
70153;SDS011;57519;51.494;-2.626;2022-12-10T00:20:00;32.97;;;13.97;;
70153;SDS011;57519;51.494;-2.626;2022-12-10T00:22:25;24.80;;;13.37;;
70153;SDS011;57519;51.494;-2.626;2022-12-10T00:24:51;18.45;;;13.48;;
70153;SDS011;57519;51.494;-2.626;2022-12-10T00:27:16;20.37;;;12.13;;
70153;SDS011;57519;51.494;-2.626;2022-12-10T00:29:42;22.57;;;13.07;;
70153;SDS011;57519;51.494;-2.626;2022-12-10T00:32:07;22.58;;;13.27;;
70153;SDS011;57519;51.494;-2.626;2022-12-10T00:34:33;17.90;;;12.60;;
70153;SDS011;57519;51.494;-2.626;2022-12-10T00:36:58;26.50;;;12.57;;
70153;SDS011;57519;51.494;-2.626;2022-12-10T00:39:23;22.27;;;13.63;;
70153;SDS011;57519;51.494;-2.626;2022-12-10T00:41:49;23.52;;;14.05;;
70153;SDS011;57519;51.494;-2.626;2022-12-10T00:44:14;27.17;;;13.57;;
70153;SDS011;57519;51.494;-2.626;2022-12-10T00:46:41;25.90;;;15.35;;
70153;SDS011;57519;51.494;-2.626;2022-12-10T00:49:06;22.07;;;13.93;;
70153;SDS011;57519;51.494;-2.626;2022-12-10T00:51:32;24.33;;;15.18;;
70153;SDS011;57519;51.494;-2.626;2022-12-10T00:53:58;28.10;;;15.50;;
70153;SDS011;57519;51.494;-2.626;2022-12-10T00:56:25;23.92;;;15.68;;
70153;SDS011;57519;51.494;-2.626;2022-12-10T00:58:52;25.03;;;13.80;;
70153;SDS011;57519;51.494;-2.626;2022-12-10T01:03:52;23.95;;;14.02;;
70153;SDS011;57519;51.494;-2.626;2022-12-10T01:08:47;24.27;;;13.37;;
70153;SDS011;57519;51.494;-2.626;2022-12-10T01:11:14;28.17;;;15.60;;
70153;SDS011;57519;51.494;-2.626;2022-12-10T01:13:41;25.40;;;14.10;;
70153;SDS011;57519;51.494;-2.626;2022-12-10T01:16:08;30.52;;;16.92;;
70153;SDS011;57519;51.494;-2.626;2022-12-10T01:18:34;24.75;;;13.95;;
70153;SDS011;57519;51.494;-2.626;2022-12-10T01:21:02;21.02;;;13.77;;
70153;SDS011;57519;51.494;-2.626;2022-12-10T01:23:32;25.20;;;13.27;;
70153;SDS011;57519;51.494;-2.626;2022-12-10T01:26:00;25.43;;;12.93;;
70153;SDS011;57519;51.494;-2.626;2022-12-10T01:28:30;21.75;;;12.75;;
70153;SDS011;57519;51.494;-2.626;2022-12-10T01:31:04;21.30;;;12.95;;
70153;SDS011;57519;51.494;-2.626;2022-12-10T01:33:34;22.00;;;13.65;;
70153;SDS011;57519;51.494;-2.626;2022-12-10T01:36:35;23.73;;;13.43;;
70153;SDS011;57519;51.494;-2.626;2022-12-10T01:38:57;28.93;;;13.27;;
70153;SDS011;57519;51.494;-2.626;2022-12-10T01:41:27;19.52;;;13.23;;
70153;SDS011;57519;51.494;-2.626;2022-12-10T01:46:29;20.85;;;13.00;;
70153;SDS011;57519;51.494;-2.626;2022-12-10T01:48:56;22.23;;;13.45;;
70153;SDS011;57519;51.494;-2.626;2022-12-10T01:51:24;22.27;;;14.70;;
70153;SDS011;57519;51.494;-2.626;2022-12-10T01:53:52;20.55;;;12.98;;
70153;SDS011;57519;51.494;-2.626;2022-12-10T01:56:19;25.20;;;14.43;;
70153;SDS011;57519;51.494;-2.626;2022-12-10T01:58:46;22.52;;;13.77;;
70153;SDS011;57519;51.494;-2.626;2022-12-10T02:11:44;23.30;;;12.77;;
70153;SDS011;57519;51.494;-2.626;2022-12-10T02:14:23;26.33;;;14.25;;
70153;SDS011;57519;51.494;-2.626;2022-12-10T02:16:57;19.57;;;12.23;;
70153;SDS011;57519;51.494;-2.626;2022-12-10T02:22:00;21.70;;;12.73;;
70153;SDS011;57519;51.494;-2.626;2022-12-10T02:24:27;25.77;;;12.30;;
70153;SDS011;57519;51.494;-2.626;2022-12-10T02:27:04;19.95;;;13.05;;
70153;SDS011;57519;51.494;-2.626;2022-12-10T02:29:35;15.30;;;12.73;;
70153;SDS011;57519;51.494;-2.626;2022-12-10T02:32:04;21.98;;;12.73;;
70153;SDS011;57519;51.494;-2.626;2022-12-10T02:34:37;19.67;;;12.38;;
70153;SDS011;57519;51.494;-2.626;2022-12-10T02:37:17;17.00;;;11.35;;
70153;SDS011;57519;51.494;-2.626;2022-12-10T02:39:47;18.45;;;11.50;;
70153;SDS011;57519;51.494;-2.626;2022-12-10T02:42:15;11.97;;;10.13;;
70153;SDS011;57519;51.494;-2.626;2022-12-10T02:44:42;15.82;;;10.75;;
70153;SDS011;57519;51.494;-2.626;2022-12-10T02:47:09;20.60;;;11.75;;
70153;SDS011;57519;51.494;-2.626;2022-12-10T02:49:36;20.63;;;11.52;;
70153;SDS011;57519;51.494;-2.626;2022-12-10T02:52:08;18.38;;;10.70;;
70153;SDS011;57519;51.494;-2.626;2022-12-10T02:54:42;15.60;;;10.67;;
70153;SDS011;57519;51.494;-2.626;2022-12-10T03:00:00;18.73;;;12.25;;
70153;SDS011;57519;51.494;-2.626;2022-12-10T03:05:35;14.75;;;10.75;;
70153;SDS011;57519;51.494;-2.626;2022-12-10T03:13:45;13.23;;;10.80;;
70153;SDS011;57519;51.494;-2.626;2022-12-10T03:17:10;18.90;;;12.57;;
70153;SDS011;57519;51.494;-2.626;2022-12-10T03:19:26;23.52;;;12.15;;
70153;SDS011;57519;51.494;-2.626;2022-12-10T03:22:01;17.07;;;11.90;;
70153;SDS011;57519;51.494;-2.626;2022-12-10T03:24:28;15.57;;;9.57;;
70153;SDS011;57519;51.494;-2.626;2022-12-10T03:26:53;19.40;;;10.60;;
70153;SDS011;57519;51.494;-2.626;2022-12-10T03:29:24;18.75;;;10.18;;
70153;SDS011;57519;51.494;-2.626;2022-12-10T03:31:53;18.57;;;11.37;;
70153;SDS011;57519;51.494;-2.626;2022-12-10T03:34:20;17.05;;;11.43;;
70153;SDS011;57519;51.494;-2.626;2022-12-10T03:36:46;17.45;;;10.93;;
70153;SDS011;57519;51.494;-2.626;2022-12-10T03:39:13;21.83;;;10.88;;
70153;SDS011;57519;51.494;-2.626;2022-12-10T03:41:40;12.88;;;9.68;;
70153;SDS011;57519;51.494;-2.626;2022-12-10T03:44:05;12.00;;;8.40;;
70153;SDS011;57519;51.494;-2.626;2022-12-10T03:46:31;16.87;;;10.67;;
70153;SDS011;57519;51.494;-2.626;2022-12-10T03:48:57;23.17;;;10.75;;
70153;SDS011;57519;51.494;-2.626;2022-12-10T03:51:24;14.60;;;10.35;;
70153;SDS011;57519;51.494;-2.626;2022-12-10T03:53:49;15.97;;;9.93;;
70153;SDS011;57519;51.494;-2.626;2022-12-10T03:56:16;15.53;;;10.33;;
70153;SDS011;57519;51.494;-2.626;2022-12-10T03:58:42;12.68;;;8.27;;
70153;SDS011;57519;51.494;-2.626;2022-12-10T04:01:08;15.77;;;9.73;;
70153;SDS011;57519;51.494;-2.626;2022-12-10T04:03:35;12.00;;;10.40;;
70153;SDS011;57519;51.494;-2.626;2022-12-10T04:06:09;17.42;;;11.30;;
70153;SDS011;57519;51.494;-2.626;2022-12-10T04:08:36;15.57;;;8.15;;
70153;SDS011;57519;51.494;-2.626;2022-12-10T04:11:05;12.87;;;8.40;;
70153;SDS011;57519;51.494;-2.626;2022-12-10T04:13:33;15.43;;;9.43;;
70153;SDS011;57519;51.494;-2.626;2022-12-10T04:16:17;14.05;;;8.55;;
70153;SDS011;57519;51.494;-2.626;2022-12-10T04:18:56;14.93;;;7.93;;
70153;SDS011;57519;51.494;-2.626;2022-12-10T04:21:29;13.10;;;7.93;;
70153;SDS011;57519;51.494;-2.626;2022-12-10T04:24:15;13.13;;;9.23;;
70153;SDS011;57519;51.494;-2.626;2022-12-10T04:27:01;14.00;;;9.35;;
70153;SDS011;57519;51.494;-2.626;2022-12-10T04:29:30;15.90;;;8.85;;
70153;SDS011;57519;51.494;-2.626;2022-12-10T04:31:56;17.70;;;10.20;;
70153;SDS011;57519;51.494;-2.626;2022-12-10T04:34:22;11.95;;;7.70;;
70153;SDS011;57519;51.494;-2.626;2022-12-10T04:36:49;16.30;;;9.30;;
70153;SDS011;57519;51.494;-2.626;2022-12-10T04:39:15;13.48;;;8.65;;
70153;SDS011;57519;51.494;-2.626;2022-12-10T04:41:41;15.97;;;8.53;;
70153;SDS011;57519;51.494;-2.626;2022-12-10T04:44:08;15.30;;;8.98;;
70153;SDS011;57519;51.494;-2.626;2022-12-10T04:46:34;11.50;;;8.48;;
70153;SDS011;57519;51.494;-2.626;2022-12-10T04:48:59;13.60;;;8.47;;
70153;SDS011;57519;51.494;-2.626;2022-12-10T04:51:25;13.67;;;9.97;;
70153;SDS011;57519;51.494;-2.626;2022-12-10T04:53:50;11.30;;;8.07;;
70153;SDS011;57519;51.494;-2.626;2022-12-10T04:56:16;20.43;;;8.30;;
70153;SDS011;57519;51.494;-2.626;2022-12-10T04:58:41;12.27;;;8.60;;
70153;SDS011;57519;51.494;-2.626;2022-12-10T05:01:08;18.10;;;9.53;;
70153;SDS011;57519;51.494;-2.626;2022-12-10T05:03:35;15.18;;;8.40;;
70153;SDS011;57519;51.494;-2.626;2022-12-10T05:06:01;14.13;;;10.73;;
70153;SDS011;57519;51.494;-2.626;2022-12-10T05:08:28;10.27;;;7.40;;
70153;SDS011;57519;51.494;-2.626;2022-12-10T05:10:54;14.63;;;8.50;;
70153;SDS011;57519;51.494;-2.626;2022-12-10T05:13:19;18.25;;;9.55;;
70153;SDS011;57519;51.494;-2.626;2022-12-10T05:15:45;19.00;;;10.97;;
70153;SDS011;57519;51.494;-2.626;2022-12-10T05:18:10;13.57;;;8.53;;
70153;SDS011;57519;51.494;-2.626;2022-12-10T05:20:35;17.43;;;10.20;;
70153;SDS011;57519;51.494;-2.626;2022-12-10T05:23:01;10.97;;;8.30;;
70153;SDS011;57519;51.494;-2.626;2022-12-10T05:25:45;11.30;;;8.27;;
70153;SDS011;57519;51.494;-2.626;2022-12-10T05:28:20;13.73;;;8.38;;
70153;SDS011;57519;51.494;-2.626;2022-12-10T05:30:46;9.38;;;7.85;;
70153;SDS011;57519;51.494;-2.626;2022-12-10T05:33:11;10.30;;;6.80;;
70153;SDS011;57519;51.494;-2.626;2022-12-10T05:35:37;6.90;;;5.77;;
70153;SDS011;57519;51.494;-2.626;2022-12-10T05:38:03;9.07;;;6.13;;
70153;SDS011;57519;51.494;-2.626;2022-12-10T05:40:28;14.87;;;8.20;;
70153;SDS011;57519;51.494;-2.626;2022-12-10T05:42:54;13.02;;;7.82;;
70153;SDS011;57519;51.494;-2.626;2022-12-10T05:45:20;15.27;;;7.23;;
70153;SDS011;57519;51.494;-2.626;2022-12-10T05:47:46;10.68;;;7.70;;
70153;SDS011;57519;51.494;-2.626;2022-12-10T05:50:11;13.40;;;8.43;;
70153;SDS011;57519;51.494;-2.626;2022-12-10T05:52:36;12.43;;;7.50;;
70153;SDS011;57519;51.494;-2.626;2022-12-10T05:55:02;12.40;;;7.77;;
70153;SDS011;57519;51.494;-2.626;2022-12-10T05:57:27;13.63;;;7.57;;
70153;SDS011;57519;51.494;-2.626;2022-12-10T05:59:53;13.47;;;9.13;;
70153;SDS011;57519;51.494;-2.626;2022-12-10T06:02:18;11.57;;;7.73;;
70153;SDS011;57519;51.494;-2.626;2022-12-10T06:04:44;11.50;;;8.67;;
70153;SDS011;57519;51.494;-2.626;2022-12-10T06:07:09;13.35;;;7.90;;
70153;SDS011;57519;51.494;-2.626;2022-12-10T06:09:34;9.20;;;5.87;;
70153;SDS011;57519;51.494;-2.626;2022-12-10T06:12:00;7.23;;;6.40;;
70153;SDS011;57519;51.494;-2.626;2022-12-10T06:14:25;12.50;;;7.27;;
70153;SDS011;57519;51.494;-2.626;2022-12-10T06:16:51;17.50;;;8.07;;
70153;SDS011;57519;51.494;-2.626;2022-12-10T06:19:16;13.20;;;7.95;;
70153;SDS011;57519;51.494;-2.626;2022-12-10T06:21:41;13.47;;;8.97;;
70153;SDS011;57519;51.494;-2.626;2022-12-10T06:24:07;14.70;;;8.73;;
70153;SDS011;57519;51.494;-2.626;2022-12-10T06:26:32;10.30;;;8.07;;
70153;SDS011;57519;51.494;-2.626;2022-12-10T06:28:58;13.00;;;7.37;;
70153;SDS011;57519;51.494;-2.626;2022-12-10T06:31:25;8.73;;;7.20;;
70153;SDS011;57519;51.494;-2.626;2022-12-10T06:33:50;10.67;;;7.67;;
70153;SDS011;57519;51.494;-2.626;2022-12-10T06:36:17;9.77;;;7.70;;
70153;SDS011;57519;51.494;-2.626;2022-12-10T06:38:43;16.10;;;7.88;;
70153;SDS011;57519;51.494;-2.626;2022-12-10T06:41:11;8.73;;;7.10;;
70153;SDS011;57519;51.494;-2.626;2022-12-10T06:43:41;10.48;;;6.93;;
70153;SDS011;57519;51.494;-2.626;2022-12-10T06:46:07;10.73;;;7.57;;
70153;SDS011;57519;51.494;-2.626;2022-12-10T06:48:34;10.20;;;7.10;;
70153;SDS011;57519;51.494;-2.626;2022-12-10T06:51:00;11.48;;;8.10;;
70153;SDS011;57519;51.494;-2.626;2022-12-10T06:53:26;12.57;;;7.63;;
70153;SDS011;57519;51.494;-2.626;2022-12-10T06:55:51;7.30;;;6.60;;
70153;SDS011;57519;51.494;-2.626;2022-12-10T06:58:17;11.52;;;7.40;;
70153;SDS011;57519;51.494;-2.626;2022-12-10T07:00:42;10.30;;;6.53;;
70153;SDS011;57519;51.494;-2.626;2022-12-10T07:03:07;11.00;;;7.37;;
70153;SDS011;57519;51.494;-2.626;2022-12-10T07:05:33;9.93;;;6.50;;
70153;SDS011;57519;51.494;-2.626;2022-12-10T07:07:58;9.33;;;6.23;;
70153;SDS011;57519;51.494;-2.626;2022-12-10T07:10:24;9.05;;;6.00;;
70153;SDS011;57519;51.494;-2.626;2022-12-10T07:12:49;8.50;;;6.70;;
70153;SDS011;57519;51.494;-2.626;2022-12-10T07:15:14;8.30;;;5.03;;
70153;SDS011;57519;51.494;-2.626;2022-12-10T07:17:40;9.70;;;6.40;;
70153;SDS011;57519;51.494;-2.626;2022-12-10T07:20:05;10.50;;;6.22;;
70153;SDS011;57519;51.494;-2.626;2022-12-10T07:22:32;11.77;;;7.90;;
70153;SDS011;57519;51.494;-2.626;2022-12-10T07:24:57;13.25;;;7.50;;
70153;SDS011;57519;51.494;-2.626;2022-12-10T07:27:23;16.33;;;6.97;;
70153;SDS011;57519;51.494;-2.626;2022-12-10T07:29:48;9.73;;;7.47;;
70153;SDS011;57519;51.494;-2.626;2022-12-10T07:32:13;15.00;;;9.10;;
70153;SDS011;57519;51.494;-2.626;2022-12-10T07:34:39;11.70;;;7.33;;
70153;SDS011;57519;51.494;-2.626;2022-12-10T07:37:04;13.87;;;8.27;;
70153;SDS011;57519;51.494;-2.626;2022-12-10T07:39:30;19.83;;;9.50;;
70153;SDS011;57519;51.494;-2.626;2022-12-10T07:41:55;14.13;;;7.97;;
70153;SDS011;57519;51.494;-2.626;2022-12-10T07:44:22;10.20;;;7.43;;
70153;SDS011;57519;51.494;-2.626;2022-12-10T07:46:50;10.35;;;7.38;;
70153;SDS011;57519;51.494;-2.626;2022-12-10T07:49:16;12.98;;;7.80;;
70153;SDS011;57519;51.494;-2.626;2022-12-10T07:51:46;9.43;;;7.77;;
70153;SDS011;57519;51.494;-2.626;2022-12-10T07:54:12;10.55;;;6.90;;
70153;SDS011;57519;51.494;-2.626;2022-12-10T07:56:38;13.23;;;7.55;;
70153;SDS011;57519;51.494;-2.626;2022-12-10T07:59:04;17.33;;;8.93;;
70153;SDS011;57519;51.494;-2.626;2022-12-10T08:01:29;12.20;;;8.32;;
70153;SDS011;57519;51.494;-2.626;2022-12-10T08:03:55;13.97;;;8.63;;
70153;SDS011;57519;51.494;-2.626;2022-12-10T08:06:21;13.05;;;8.38;;
70153;SDS011;57519;51.494;-2.626;2022-12-10T08:08:48;9.37;;;7.53;;
70153;SDS011;57519;51.494;-2.626;2022-12-10T08:11:14;15.65;;;7.70;;
70153;SDS011;57519;51.494;-2.626;2022-12-10T08:13:41;9.18;;;7.07;;
70153;SDS011;57519;51.494;-2.626;2022-12-10T08:16:14;11.52;;;6.30;;
70153;SDS011;57519;51.494;-2.626;2022-12-10T08:18:42;10.68;;;7.95;;
70153;SDS011;57519;51.494;-2.626;2022-12-10T08:21:15;12.00;;;7.70;;
70153;SDS011;57519;51.494;-2.626;2022-12-10T08:23:42;10.80;;;7.60;;
70153;SDS011;57519;51.494;-2.626;2022-12-10T08:26:14;9.88;;;7.03;;
70153;SDS011;57519;51.494;-2.626;2022-12-10T08:28:48;12.57;;;6.70;;
70153;SDS011;57519;51.494;-2.626;2022-12-10T08:31:15;9.88;;;5.90;;
70153;SDS011;57519;51.494;-2.626;2022-12-10T08:33:41;9.00;;;6.70;;
70153;SDS011;57519;51.494;-2.626;2022-12-10T08:36:07;9.57;;;7.05;;
70153;SDS011;57519;51.494;-2.626;2022-12-10T08:38:35;10.75;;;6.85;;
70153;SDS011;57519;51.494;-2.626;2022-12-10T08:41:05;9.33;;;6.73;;
70153;SDS011;57519;51.494;-2.626;2022-12-10T08:43:32;10.02;;;6.75;;
70153;SDS011;57519;51.494;-2.626;2022-12-10T08:45:58;7.13;;;5.67;;
70153;SDS011;57519;51.494;-2.626;2022-12-10T08:48:24;10.10;;;6.57;;
70153;SDS011;57519;51.494;-2.626;2022-12-10T08:50:49;9.53;;;7.03;;
70153;SDS011;57519;51.494;-2.626;2022-12-10T08:53:14;7.97;;;5.63;;
70153;SDS011;57519;51.494;-2.626;2022-12-10T08:55:40;11.40;;;7.33;;
70153;SDS011;57519;51.494;-2.626;2022-12-10T08:58:05;10.20;;;6.13;;
70153;SDS011;57519;51.494;-2.626;2022-12-10T09:00:32;8.73;;;7.67;;
70153;SDS011;57519;51.494;-2.626;2022-12-10T09:02:57;8.67;;;6.60;;
70153;SDS011;57519;51.494;-2.626;2022-12-10T09:05:23;9.77;;;7.10;;
70153;SDS011;57519;51.494;-2.626;2022-12-10T09:07:49;10.88;;;6.05;;
70153;SDS011;57519;51.494;-2.626;2022-12-10T09:10:14;11.47;;;7.37;;
70153;SDS011;57519;51.494;-2.626;2022-12-10T09:12:41;11.02;;;6.03;;
70153;SDS011;57519;51.494;-2.626;2022-12-10T09:15:08;8.73;;;6.33;;
70153;SDS011;57519;51.494;-2.626;2022-12-10T09:17:34;8.50;;;6.82;;
70153;SDS011;57519;51.494;-2.626;2022-12-10T09:20:00;8.43;;;5.83;;
70153;SDS011;57519;51.494;-2.626;2022-12-10T09:22:26;9.07;;;6.90;;
70153;SDS011;57519;51.494;-2.626;2022-12-10T09:24:51;8.10;;;6.57;;
70153;SDS011;57519;51.494;-2.626;2022-12-10T09:27:17;8.37;;;6.17;;
70153;SDS011;57519;51.494;-2.626;2022-12-10T09:29:42;7.60;;;5.40;;
70153;SDS011;57519;51.494;-2.626;2022-12-10T09:32:07;6.95;;;5.10;;
70153;SDS011;57519;51.494;-2.626;2022-12-10T09:34:33;5.50;;;5.00;;
70153;SDS011;57519;51.494;-2.626;2022-12-10T09:36:58;4.17;;;3.77;;
70153;SDS011;57519;51.494;-2.626;2022-12-10T09:39:24;7.53;;;6.03;;
70153;SDS011;57519;51.494;-2.626;2022-12-10T09:50:19;7.87;;;5.30;;
70153;SDS011;57519;51.494;-2.626;2022-12-10T09:52:50;5.07;;;4.53;;
70153;SDS011;57519;51.494;-2.626;2022-12-10T09:55:19;9.07;;;6.78;;
70153;SDS011;57519;51.494;-2.626;2022-12-10T09:57:50;5.75;;;5.22;;
70153;SDS011;57519;51.494;-2.626;2022-12-10T10:00:20;5.88;;;4.68;;
70153;SDS011;57519;51.494;-2.626;2022-12-10T10:02:48;5.40;;;4.90;;
70153;SDS011;57519;51.494;-2.626;2022-12-10T10:05:26;4.95;;;4.43;;
70153;SDS011;57519;51.494;-2.626;2022-12-10T10:07:58;7.38;;;4.45;;
70153;SDS011;57519;51.494;-2.626;2022-12-10T10:10:30;6.13;;;4.70;;
70153;SDS011;57519;51.494;-2.626;2022-12-10T10:13:10;4.90;;;4.50;;
70153;SDS011;57519;51.494;-2.626;2022-12-10T10:15:42;4.77;;;4.27;;
70153;SDS011;57519;51.494;-2.626;2022-12-10T10:18:18;6.75;;;5.45;;
70153;SDS011;57519;51.494;-2.626;2022-12-10T10:20:53;6.53;;;4.78;;
70153;SDS011;57519;51.494;-2.626;2022-12-10T10:23:19;6.10;;;4.72;;
70153;SDS011;57519;51.494;-2.626;2022-12-10T10:25:45;5.53;;;3.87;;
70153;SDS011;57519;51.494;-2.626;2022-12-10T10:28:11;7.17;;;4.43;;
70153;SDS011;57519;51.494;-2.626;2022-12-10T10:30:42;5.28;;;4.40;;
70153;SDS011;57519;51.494;-2.626;2022-12-10T10:33:10;8.27;;;4.93;;
70153;SDS011;57519;51.494;-2.626;2022-12-10T10:35:44;5.38;;;4.18;;
70153;SDS011;57519;51.494;-2.626;2022-12-10T10:38:21;5.43;;;3.93;;
70153;SDS011;57519;51.494;-2.626;2022-12-10T10:40:57;5.18;;;3.50;;
70153;SDS011;57519;51.494;-2.626;2022-12-10T10:48:38;5.45;;;4.45;;
70153;SDS011;57519;51.494;-2.626;2022-12-10T10:53:42;6.82;;;5.25;;
70153;SDS011;57519;51.494;-2.626;2022-12-10T10:56:15;6.40;;;4.53;;
70153;SDS011;57519;51.494;-2.626;2022-12-10T10:58:58;5.53;;;4.60;;
70153;SDS011;57519;51.494;-2.626;2022-12-10T11:01:25;4.63;;;3.72;;
70153;SDS011;57519;51.494;-2.626;2022-12-10T11:04:07;5.55;;;4.13;;
70153;SDS011;57519;51.494;-2.626;2022-12-10T11:06:33;5.53;;;4.30;;
70153;SDS011;57519;51.494;-2.626;2022-12-10T11:08:58;5.57;;;4.22;;
70153;SDS011;57519;51.494;-2.626;2022-12-10T11:11:34;4.17;;;3.43;;
70153;SDS011;57519;51.494;-2.626;2022-12-10T11:16:54;5.63;;;4.25;;
70153;SDS011;57519;51.494;-2.626;2022-12-10T11:19:26;6.07;;;4.43;;
70153;SDS011;57519;51.494;-2.626;2022-12-10T11:21:51;5.72;;;4.10;;
70153;SDS011;57519;51.494;-2.626;2022-12-10T11:24:18;5.27;;;4.30;;
70153;SDS011;57519;51.494;-2.626;2022-12-10T11:40:12;6.70;;;5.10;;
70153;SDS011;57519;51.494;-2.626;2022-12-10T11:50:51;6.90;;;4.90;;
70153;SDS011;57519;51.494;-2.626;2022-12-10T12:04:28;7.90;;;4.60;;
70153;SDS011;57519;51.494;-2.626;2022-12-10T12:09:52;5.95;;;3.90;;
70153;SDS011;57519;51.494;-2.626;2022-12-10T12:15:31;7.47;;;4.43;;
70153;SDS011;57519;51.494;-2.626;2022-12-10T12:18:08;7.57;;;4.43;;
70153;SDS011;57519;51.494;-2.626;2022-12-10T12:20:38;5.43;;;3.70;;
70153;SDS011;57519;51.494;-2.626;2022-12-10T12:23:11;4.57;;;3.83;;
70153;SDS011;57519;51.494;-2.626;2022-12-10T12:25:46;4.78;;;3.30;;
70153;SDS011;57519;51.494;-2.626;2022-12-10T12:28:20;9.43;;;4.32;;
70153;SDS011;57519;51.494;-2.626;2022-12-10T12:30:51;7.43;;;4.80;;
70153;SDS011;57519;51.494;-2.626;2022-12-10T12:38:39;5.55;;;4.28;;
70153;SDS011;57519;51.494;-2.626;2022-12-10T12:41:15;4.85;;;4.25;;
70153;SDS011;57519;51.494;-2.626;2022-12-10T12:44:07;6.00;;;3.77;;
70153;SDS011;57519;51.494;-2.626;2022-12-10T12:46:42;4.55;;;3.75;;
70153;SDS011;57519;51.494;-2.626;2022-12-10T12:52:04;11.02;;;4.93;;
70153;SDS011;57519;51.494;-2.626;2022-12-10T12:54:50;5.95;;;4.25;;
70153;SDS011;57519;51.494;-2.626;2022-12-10T12:57:23;5.40;;;4.10;;
70153;SDS011;57519;51.494;-2.626;2022-12-10T13:00:13;5.10;;;3.88;;
70153;SDS011;57519;51.494;-2.626;2022-12-10T13:05:40;4.75;;;3.63;;
70153;SDS011;57519;51.494;-2.626;2022-12-10T13:11:01;5.60;;;3.77;;
70153;SDS011;57519;51.494;-2.626;2022-12-10T13:13:42;3.40;;;3.05;;
70153;SDS011;57519;51.494;-2.626;2022-12-10T13:25:02;5.13;;;3.67;;
70153;SDS011;57519;51.494;-2.626;2022-12-10T13:27:34;5.03;;;3.95;;
70153;SDS011;57519;51.494;-2.626;2022-12-10T13:35:28;6.57;;;3.60;;
70153;SDS011;57519;51.494;-2.626;2022-12-10T13:37:53;5.80;;;3.90;;
70153;SDS011;57519;51.494;-2.626;2022-12-10T13:46:50;5.25;;;4.13;;
70153;SDS011;57519;51.494;-2.626;2022-12-10T13:49:29;4.95;;;3.80;;
70153;SDS011;57519;51.494;-2.626;2022-12-10T13:51:59;4.03;;;3.63;;
70153;SDS011;57519;51.494;-2.626;2022-12-10T13:57:49;6.65;;;3.92;;
70153;SDS011;57519;51.494;-2.626;2022-12-10T14:00:29;4.97;;;4.13;;
70153;SDS011;57519;51.494;-2.626;2022-12-10T14:03:07;4.93;;;4.07;;
70153;SDS011;57519;51.494;-2.626;2022-12-10T14:08:28;5.03;;;3.80;;
70153;SDS011;57519;51.494;-2.626;2022-12-10T14:10:56;6.20;;;4.68;;
70153;SDS011;57519;51.494;-2.626;2022-12-10T14:13:26;4.13;;;3.60;;
70153;SDS011;57519;51.494;-2.626;2022-12-10T14:16:10;11.82;;;4.38;;
70153;SDS011;57519;51.494;-2.626;2022-12-10T14:18:37;4.82;;;4.28;;
70153;SDS011;57519;51.494;-2.626;2022-12-10T14:21:06;5.07;;;3.83;;
70153;SDS011;57519;51.494;-2.626;2022-12-10T14:23:32;5.25;;;4.13;;
70153;SDS011;57519;51.494;-2.626;2022-12-10T14:28:42;4.88;;;4.18;;
70153;SDS011;57519;51.494;-2.626;2022-12-10T14:31:17;5.63;;;4.15;;
70153;SDS011;57519;51.494;-2.626;2022-12-10T14:34:04;6.27;;;4.13;;
70153;SDS011;57519;51.494;-2.626;2022-12-10T14:36:38;5.00;;;4.38;;
70153;SDS011;57519;51.494;-2.626;2022-12-10T14:39:31;9.30;;;5.00;;
70153;SDS011;57519;51.494;-2.626;2022-12-10T14:41:57;7.90;;;4.20;;
70153;SDS011;57519;51.494;-2.626;2022-12-10T14:44:26;6.72;;;4.47;;
70153;SDS011;57519;51.494;-2.626;2022-12-10T14:46:57;5.53;;;4.60;;
70153;SDS011;57519;51.494;-2.626;2022-12-10T14:49:31;5.47;;;4.03;;
70153;SDS011;57519;51.494;-2.626;2022-12-10T14:51:56;6.28;;;3.80;;
70153;SDS011;57519;51.494;-2.626;2022-12-10T14:54:23;4.60;;;4.10;;
70153;SDS011;57519;51.494;-2.626;2022-12-10T14:56:51;5.15;;;4.30;;
70153;SDS011;57519;51.494;-2.626;2022-12-10T14:59:23;6.10;;;4.60;;
70153;SDS011;57519;51.494;-2.626;2022-12-10T15:01:56;6.95;;;4.47;;
70153;SDS011;57519;51.494;-2.626;2022-12-10T15:04:24;7.70;;;4.53;;
70153;SDS011;57519;51.494;-2.626;2022-12-10T15:06:57;9.05;;;5.63;;
70153;SDS011;57519;51.494;-2.626;2022-12-10T15:09:25;7.57;;;4.18;;
70153;SDS011;57519;51.494;-2.626;2022-12-10T15:11:54;8.77;;;4.47;;
70153;SDS011;57519;51.494;-2.626;2022-12-10T15:14:21;5.78;;;4.60;;
70153;SDS011;57519;51.494;-2.626;2022-12-10T15:16:49;5.60;;;4.67;;
70153;SDS011;57519;51.494;-2.626;2022-12-10T15:19:51;5.38;;;4.45;;
70153;SDS011;57519;51.494;-2.626;2022-12-10T15:24:41;6.93;;;4.73;;
70153;SDS011;57519;51.494;-2.626;2022-12-10T15:27:20;6.70;;;4.47;;
70153;SDS011;57519;51.494;-2.626;2022-12-10T15:29:48;6.20;;;4.30;;
70153;SDS011;57519;51.494;-2.626;2022-12-10T15:32:24;5.30;;;4.23;;
70153;SDS011;57519;51.494;-2.626;2022-12-10T15:34:56;5.10;;;4.00;;
70153;SDS011;57519;51.494;-2.626;2022-12-10T15:37:31;7.82;;;4.68;;
70153;SDS011;57519;51.494;-2.626;2022-12-10T15:39:59;6.90;;;4.85;;
70153;SDS011;57519;51.494;-2.626;2022-12-10T15:45:02;6.07;;;4.07;;
70153;SDS011;57519;51.494;-2.626;2022-12-10T15:47:34;5.15;;;4.28;;
70153;SDS011;57519;51.494;-2.626;2022-12-10T15:50:03;7.90;;;4.95;;
70153;SDS011;57519;51.494;-2.626;2022-12-10T15:52:29;4.53;;;4.07;;
70153;SDS011;57519;51.494;-2.626;2022-12-10T15:54:55;5.77;;;4.07;;
70153;SDS011;57519;51.494;-2.626;2022-12-10T15:57:26;6.38;;;4.03;;
70153;SDS011;57519;51.494;-2.626;2022-12-10T16:00:08;6.80;;;4.25;;
70153;SDS011;57519;51.494;-2.626;2022-12-10T16:02:51;6.60;;;4.50;;
70153;SDS011;57519;51.494;-2.626;2022-12-10T16:05:23;6.03;;;4.43;;
70153;SDS011;57519;51.494;-2.626;2022-12-10T16:07:50;6.47;;;4.47;;
70153;SDS011;57519;51.494;-2.626;2022-12-10T16:10:20;6.75;;;4.78;;
70153;SDS011;57519;51.494;-2.626;2022-12-10T16:12:48;6.93;;;4.80;;
70153;SDS011;57519;51.494;-2.626;2022-12-10T16:15:16;5.80;;;4.25;;
70153;SDS011;57519;51.494;-2.626;2022-12-10T16:17:44;5.43;;;4.70;;
70153;SDS011;57519;51.494;-2.626;2022-12-10T16:22:53;5.93;;;5.32;;
70153;SDS011;57519;51.494;-2.626;2022-12-10T16:25:20;5.07;;;4.60;;
70153;SDS011;57519;51.494;-2.626;2022-12-10T16:27:46;7.63;;;5.50;;
70153;SDS011;57519;51.494;-2.626;2022-12-10T16:30:22;5.00;;;4.23;;
70153;SDS011;57519;51.494;-2.626;2022-12-10T16:32:50;7.68;;;5.03;;
70153;SDS011;57519;51.494;-2.626;2022-12-10T16:35:16;5.50;;;5.00;;
70153;SDS011;57519;51.494;-2.626;2022-12-10T16:37:43;4.53;;;3.93;;
70153;SDS011;57519;51.494;-2.626;2022-12-10T16:40:10;4.68;;;3.88;;
70153;SDS011;57519;51.494;-2.626;2022-12-10T16:42:37;5.93;;;4.85;;
70153;SDS011;57519;51.494;-2.626;2022-12-10T16:45:08;4.67;;;3.87;;
70153;SDS011;57519;51.494;-2.626;2022-12-10T16:47:38;6.60;;;4.72;;
70153;SDS011;57519;51.494;-2.626;2022-12-10T16:50:04;6.13;;;4.77;;
70153;SDS011;57519;51.494;-2.626;2022-12-10T16:52:29;8.98;;;4.70;;
70153;SDS011;57519;51.494;-2.626;2022-12-10T16:54:55;11.67;;;7.90;;